Time;durP1;ratioP1;P1;durP2;ratioP2;P2;SDS_P1;SDS_P2;PMS_P1;PMS_P2;Temp;Humidity;BMP_temperature;BMP_pressure;BME280_temperature;BME280_humidity;BME280_pressure;Samples;Min_cycle;Max_cycle;Signal;HPM_P1;HPM_P2
2022/12/04 00:01:22;;;;;;;23.55;11.48;;;2.40;77.10;;;;;;4147259;28;20023;-85
2022/12/04 00:03:22;;;;;;;18.40;10.40;;;2.30;76.60;;;;;;4148645;28;20025;-84
2022/12/04 00:05:23;;;;;;;20.90;10.93;;;2.40;76.70;;;;;;4130294;28;20037;-85
2022/12/04 00:07:24;;;;;;;24.80;11.88;;;2.40;76.70;;;;;;4146173;28;20022;-85
2022/12/04 00:09:25;;;;;;;21.17;11.27;;;2.30;76.90;;;;;;4144902;28;20113;-86
2022/12/04 00:11:28;;;;;;;22.88;11.45;;;2.20;76.70;;;;;;4115511;28;20065;-85
2022/12/04 00:13:29;;;;;;;24.75;12.20;;;2.30;76.70;;;;;;4129777;28;20117;-86
2022/12/04 00:15:30;;;;;;;24.13;11.73;;;2.30;76.70;;;;;;4118917;28;20156;-85
2022/12/04 00:17:31;;;;;;;20.88;11.43;;;2.30;76.80;;;;;;4161486;28;20033;-86
2022/12/04 00:19:32;;;;;;;21.40;11.13;;;2.30;76.90;;;;;;4137141;28;20052;-85
2022/12/04 00:21:33;;;;;;;21.83;11.48;;;2.40;76.90;;;;;;4148414;28;20054;-85
2022/12/04 00:23:35;;;;;;;23.88;12.32;;;2.40;76.70;;;;;;4137702;28;20026;-86
2022/12/04 00:25:36;;;;;;;29.88;13.15;;;2.40;76.60;;;;;;4135532;28;20487;-86
2022/12/04 00:27:37;;;;;;;25.67;12.57;;;2.30;76.50;;;;;;4146812;28;20036;-85
2022/12/04 00:29:37;;;;;;;25.55;12.52;;;2.40;76.50;;;;;;4138627;28;20031;-86
2022/12/04 00:31:39;;;;;;;23.10;12.20;;;2.30;76.10;;;;;;4133404;28;20062;-86
2022/12/04 00:33:40;;;;;;;21.67;12.20;;;2.30;76.00;;;;;;4148210;28;20018;-86
2022/12/04 00:35:41;;;;;;;19.95;11.55;;;2.30;75.50;;;;;;4137268;28;20033;-86
2022/12/04 00:37:41;;;;;;;19.42;11.52;;;2.20;74.70;;;;;;4135964;28;20018;-86
2022/12/04 00:39:42;;;;;;;24.73;11.68;;;2.30;74.60;;;;;;4133169;28;20025;-86
2022/12/04 00:41:42;;;;;;;20.13;11.32;;;2.10;73.90;;;;;;4135136;28;20038;-86
2022/12/04 00:43:44;;;;;;;23.60;11.25;;;2.20;74.00;;;;;;4132083;28;20141;-85
2022/12/04 00:45:45;;;;;;;23.67;11.55;;;2.20;73.90;;;;;;4118270;28;20042;-86
2022/12/04 00:47:45;;;;;;;19.67;11.18;;;2.30;74.10;;;;;;4147781;28;20057;-86
2022/12/04 00:49:49;;;;;;;21.60;11.38;;;2.20;73.40;;;;;;4147717;28;20025;-85
2022/12/04 00:51:49;;;;;;;20.92;11.00;;;2.20;73.50;;;;;;4129025;28;20395;-86
2022/12/04 00:53:51;;;;;;;22.73;10.63;;;2.20;73.40;;;;;;4149446;28;20041;-86
2022/12/04 00:55:52;;;;;;;23.95;11.40;;;2.10;73.20;;;;;;4126983;28;20030;-86
2022/12/04 00:57:52;;;;;;;18.48;10.13;;;2.20;73.30;;;;;;4119314;28;20062;-84
2022/12/04 00:59:53;;;;;;;20.38;11.60;;;2.10;73.30;;;;;;4151711;28;20024;-85
2022/12/04 01:01:54;;;;;;;26.27;12.98;;;2.10;73.50;;;;;;4125978;28;20117;-84
2022/12/04 01:03:55;;;;;;;25.35;12.02;;;2.20;73.60;;;;;;4117846;28;20034;-85
2022/12/04 01:05:55;;;;;;;25.67;13.10;;;2.30;73.60;;;;;;4148515;28;20038;-85
2022/12/04 01:07:56;;;;;;;27.15;13.30;;;2.40;73.50;;;;;;4136142;28;20048;-85
2022/12/04 01:09:57;;;;;;;29.52;13.98;;;2.40;73.40;;;;;;4131069;28;20062;-86
2022/12/04 01:11:58;;;;;;;26.55;14.15;;;2.50;73.20;;;;;;4148307;28;20037;-86
2022/12/04 01:13:59;;;;;;;26.65;14.20;;;2.40;73.00;;;;;;4148797;28;20116;-85
2022/12/04 01:16:00;;;;;;;27.35;14.05;;;2.50;73.10;;;;;;4141676;28;20075;-86
2022/12/04 01:18:00;;;;;;;31.20;14.55;;;2.60;73.20;;;;;;4135928;28;20236;-87
2022/12/04 01:20:02;;;;;;;34.95;14.43;;;2.40;73.20;;;;;;4138759;28;20653;-87
2022/12/04 01:22:03;;;;;;;26.50;13.88;;;2.40;73.30;;;;;;4119430;28;20025;-86
2022/12/04 01:24:04;;;;;;;28.92;14.45;;;2.40;73.50;;;;;;4151435;28;20100;-85
2022/12/04 01:26:05;;;;;;;27.55;13.90;;;2.40;73.60;;;;;;4151471;28;20026;-85
2022/12/04 01:28:05;;;;;;;25.15;13.50;;;2.30;73.40;;;;;;4118959;28;20073;-86
2022/12/04 01:30:07;;;;;;;29.08;13.00;;;2.30;73.40;;;;;;4134853;28;20030;-86
2022/12/04 01:32:07;;;;;;;27.13;13.50;;;2.20;73.50;;;;;;4145681;28;21679;-86
2022/12/04 01:34:08;;;;;;;24.30;13.00;;;2.20;73.80;;;;;;4137179;28;20034;-86
2022/12/04 01:36:15;;;;;;;28.02;12.85;;;2.20;73.70;;;;;;4136875;28;20036;-86
2022/12/04 01:38:16;;;;;;;28.45;14.02;;;2.30;73.60;;;;;;4155624;28;20030;-86
2022/12/04 01:40:16;;;;;;;31.42;12.57;;;2.30;73.40;;;;;;4133319;28;20037;-86
2022/12/04 01:42:18;;;;;;;32.25;13.57;;;2.20;73.40;;;;;;4137398;28;20029;-85
2022/12/04 01:44:43;;;;;;;23.60;12.90;;;2.10;73.40;;;;;;4145492;28;20032;-86
2022/12/04 01:46:56;;;;;;;25.67;13.60;;;2.30;73.30;;;;;;4136413;28;20581;-86
2022/12/04 01:48:57;;;;;;;24.13;13.93;;;2.20;73.30;;;;;;4153652;28;20025;-87
2022/12/04 01:51:03;;;;;;;30.75;13.35;;;2.30;73.40;;;;;;4129943;28;20109;-86
2022/12/04 01:53:04;;;;;;;27.75;14.43;;;2.20;73.70;;;;;;4137503;28;20581;-86
2022/12/04 01:55:06;;;;;;;25.33;13.13;;;2.20;74.10;;;;;;4140128;28;20062;-87
2022/12/04 01:57:18;;;;;;;27.42;13.75;;;2.20;74.10;;;;;;4149180;28;20029;-85
2022/12/04 01:59:22;;;;;;;27.85;13.80;;;2.20;73.80;;;;;;4144570;28;20022;-86
2022/12/04 02:01:24;;;;;;;28.20;13.35;;;2.10;74.10;;;;;;4124619;28;20097;-86
2022/12/04 02:03:25;;;;;;;27.92;14.18;;;2.20;74.10;;;;;;4161534;28;20041;-88
2022/12/04 02:05:26;;;;;;;30.00;15.00;;;2.20;73.90;;;;;;4155559;28;20046;-85
2022/12/04 02:07:27;;;;;;;28.90;14.63;;;2.20;74.00;;;;;;4134298;28;20022;-86
2022/12/04 02:09:29;;;;;;;25.08;13.52;;;2.20;74.10;;;;;;4142710;28;20085;-86
2022/12/04 02:11:45;;;;;;;26.55;14.18;;;2.20;74.40;;;;;;4128841;28;20026;-85
2022/12/04 02:14:11;;;;;;;30.63;14.63;;;2.20;74.60;;;;;;4129048;28;20071;-86
2022/12/04 02:16:23;;;;;;;28.38;14.30;;;2.30;74.30;;;;;;4130116;28;20120;-86
2022/12/04 02:19:02;;;;;;;29.77;15.40;;;2.30;74.30;;;;;;4150907;28;20038;-86
2022/12/04 02:21:26;;;;;;;26.48;14.40;;;2.30;74.40;;;;;;4106128;28;20030;-86
2022/12/04 02:23:32;;;;;;;;;;;2.30;74.30;;;;;;4120774;28;20080;-85
2022/12/04 02:26:10;;;;;;;26.15;13.45;;;2.30;74.50;;;;;;4153263;28;19920;-85
2022/12/04 02:28:36;;;;;;;33.13;15.27;;;2.40;74.60;;;;;;4145074;28;20132;-85
2022/12/04 02:30:40;;;;;;;28.00;14.45;;;2.30;74.60;;;;;;4145330;28;20040;-85
2022/12/04 02:32:53;;;;;;;28.88;14.45;;;2.30;74.80;;;;;;4132056;28;20034;-85
2022/12/04 02:35:15;;;;;;;27.55;13.35;;;2.30;75.00;;;;;;4134798;28;20113;-85
2022/12/04 02:37:28;;;;;;;28.30;15.05;;;2.40;75.10;;;;;;4119684;28;20534;-85
2022/12/04 02:39:36;;;;;;;31.30;15.38;;;2.40;74.80;;;;;;4119463;28;20052;-86
2022/12/04 02:41:43;;;;;;;31.15;15.45;;;2.40;74.60;;;;;;4136881;28;20109;-86
2022/12/04 02:43:49;;;;;;;32.33;15.73;;;2.40;74.60;;;;;;4135165;28;20049;-86
2022/12/04 02:46:10;;;;;;;32.45;15.85;;;2.30;74.60;;;;;;4135324;28;20030;-85
2022/12/04 02:48:18;;;;;;;30.02;14.55;;;2.30;74.90;;;;;;4132789;28;20030;-85
2022/12/04 02:50:21;;;;;;;32.15;14.60;;;2.30;74.70;;;;;;4117103;28;20114;-85
2022/12/04 02:52:27;;;;;;;26.40;14.00;;;2.30;74.90;;;;;;4133230;28;20032;-86
2022/12/04 02:54:36;;;;;;;28.88;14.70;;;2.30;74.80;;;;;;4134692;28;20026;-85
2022/12/04 02:56:41;;;;;;;32.30;14.55;;;2.30;74.50;;;;;;4143176;28;20095;-86
2022/12/04 02:58:51;;;;;;;24.90;13.57;;;2.50;74.70;;;;;;4111923;28;20026;-87
2022/12/04 03:00:54;;;;;;;31.15;15.73;;;2.30;74.10;;;;;;4125894;28;20050;-85
2022/12/04 03:03:05;;;;;;;31.02;14.68;;;2.30;74.20;;;;;;4135514;28;20038;-87
2022/12/04 03:05:14;;;;;;;27.85;13.98;;;2.30;74.20;;;;;;4130562;28;20153;-86
2022/12/04 03:07:23;;;;;;;33.83;15.27;;;2.40;74.20;;;;;;4144977;28;20057;-87
2022/12/04 03:09:32;;;;;;;28.13;14.20;;;2.30;74.10;;;;;;4119654;28;20125;-86
2022/12/04 03:11:37;;;;;;;28.17;14.57;;;2.30;74.40;;;;;;4147436;28;20037;-87
2022/12/04 03:13:44;;;;;;;26.95;13.73;;;2.20;74.30;;;;;;4137731;28;20022;-86
2022/12/04 03:15:52;;;;;;;27.13;14.77;;;2.30;74.50;;;;;;4132812;28;20038;-87
2022/12/04 03:18:02;;;;;;;26.90;13.27;;;2.30;74.50;;;;;;4120833;28;20372;-87
2022/12/04 03:20:08;;;;;;;25.08;13.00;;;2.30;74.50;;;;;;4120687;28;20419;-86
2022/12/04 03:22:16;;;;;;;28.52;14.25;;;2.30;74.20;;;;;;4122756;28;20053;-87
2022/12/04 03:24:28;;;;;;;27.42;13.65;;;2.20;74.10;;;;;;4135290;28;20029;-87
2022/12/04 03:26:54;;;;;;;29.80;15.00;;;2.40;74.40;;;;;;4120536;28;20038;-86
2022/12/04 03:29:17;;;;;;;27.55;14.45;;;2.20;74.40;;;;;;4140618;28;20033;-87
2022/12/04 03:31:26;;;;;;;32.47;14.93;;;2.30;74.70;;;;;;4131719;28;20053;-85
2022/12/04 03:33:46;;;;;;;30.95;14.80;;;2.30;74.60;;;;;;4137628;28;20121;-85
2022/12/04 03:36:11;;;;;;;34.13;14.35;;;2.30;74.50;;;;;;4116559;28;20034;-86
2022/12/04 03:38:17;;;;;;;28.80;15.13;;;2.30;74.60;;;;;;4154614;28;20658;-86
2022/12/04 03:40:33;;;;;;;31.58;15.82;;;2.30;74.60;;;;;;4147071;28;20025;-86
2022/12/04 03:42:48;;;;;;;31.40;15.80;;;2.30;74.50;;;;;;4131409;28;20030;-85
2022/12/04 03:45:40;;;;;;;26.98;14.65;;;2.40;74.60;;;;;;4132980;28;20061;-85
2022/12/04 03:48:05;;;;;;;32.38;14.70;;;2.30;74.80;;;;;;4083918;28;20027;-87
2022/12/04 03:50:37;;;;;;;31.25;14.40;;;2.30;74.90;;;;;;4087001;28;20436;-86
2022/12/04 03:53:02;;;;;;;28.85;13.90;;;2.30;74.80;;;;;;4076684;28;20438;-85
2022/12/04 03:55:40;;;;;;;28.80;15.65;;;2.30;74.70;;;;;;4146686;28;20069;-86
2022/12/04 03:57:44;;;;;;;31.40;15.15;;;2.20;74.60;;;;;;4116941;28;20039;-85
2022/12/04 03:59:59;;;;;;;28.55;14.27;;;2.20;74.90;;;;;;4146087;28;20025;-86
2022/12/04 04:02:03;;;;;;;28.25;13.90;;;2.30;75.00;;;;;;4136171;28;20030;-85
2022/12/04 04:04:08;;;;;;;25.33;13.10;;;2.30;75.00;;;;;;4153650;28;20025;-86
2022/12/04 04:06:14;;;;;;;31.70;13.57;;;2.30;74.90;;;;;;4136217;28;20057;-85
2022/12/04 04:08:25;;;;;;;29.48;14.15;;;2.30;75.60;;;;;;4149246;28;20107;-86
2022/12/04 04:10:26;;;;;;;23.80;12.90;;;2.10;74.80;;;;;;4138709;28;20057;-86
2022/12/04 04:25:04;;;;;;;28.83;14.43;;;2.30;75.00;;;;;;4147707;28;20021;-85
2022/12/04 04:27:05;;;;;;;28.33;14.35;;;2.30;75.20;;;;;;4133322;28;20177;-85
2022/12/04 04:29:08;;;;;;;29.40;15.43;;;2.30;75.10;;;;;;4135776;28;20030;-85
2022/12/04 04:31:37;;;;;;;29.30;15.63;;;2.20;75.30;;;;;;4128165;28;20018;-85
2022/12/04 04:33:51;;;;;;;28.13;14.85;;;2.20;75.40;;;;;;4152374;28;20021;-85
2022/12/04 04:36:03;;;;;;;28.05;14.15;;;2.30;75.50;;;;;;4135906;28;20042;-84
2022/12/04 04:38:22;;;;;;;31.55;15.25;;;2.30;75.50;;;;;;4135470;28;20022;-85
2022/12/04 04:40:45;;;;;;;31.58;15.43;;;2.40;75.60;;;;;;4135102;28;20181;-87
2022/12/04 04:43:23;;;;;;;;;;;2.30;75.40;;;;;;4135953;28;20105;-85
2022/12/04 04:45:46;;;;;;;31.10;16.02;;;2.20;75.80;;;;;;4151141;28;19916;-86
2022/12/04 04:48:15;;;;;;;29.88;16.27;;;2.20;76.10;;;;;;4136665;28;20032;-85
2022/12/04 04:50:37;;;;;;;33.92;15.30;;;2.20;76.30;;;;;;4148896;28;20037;-85
2022/12/04 04:53:03;;;;;;;27.50;14.70;;;2.20;76.10;;;;;;4149920;28;20099;-86
2022/12/04 04:55:24;;;;;;;29.35;14.82;;;2.30;76.10;;;;;;4137323;28;20315;-85
2022/12/04 04:57:27;;;;;;;29.88;14.77;;;2.30;76.10;;;;;;4152029;28;20022;-85
2022/12/04 04:59:28;;;;;;;;;;;2.30;76.10;;;;;;4149582;28;20623;-83
2022/12/04 05:01:28;;;;;;;37.50;17.65;;;2.20;76.50;;;;;;4132629;28;19913;-85
2022/12/04 05:03:30;;;;;;;35.28;16.98;;;2.20;76.50;;;;;;4135959;28;20032;-85
2022/12/04 05:05:30;;;;;;;35.53;17.20;;;2.20;76.60;;;;;;4137324;28;20033;-85
2022/12/04 05:07:31;;;;;;;34.50;16.63;;;2.20;76.70;;;;;;4137810;28;20100;-85
2022/12/04 05:09:32;;;;;;;33.00;15.35;;;2.40;76.90;;;;;;4136455;28;20108;-85
2022/12/04 05:11:33;;;;;;;32.47;15.50;;;2.30;77.40;;;;;;4119010;28;20087;-85
2022/12/04 05:13:34;;;;;;;29.85;15.63;;;2.30;76.50;;;;;;4150382;28;20060;-85
2022/12/04 05:15:34;;;;;;;34.65;16.42;;;2.30;76.40;;;;;;4153672;28;20029;-84
2022/12/04 05:17:35;;;;;;;34.53;16.83;;;2.30;76.40;;;;;;4152412;28;20033;-84
2022/12/04 05:19:55;;;;;;;31.38;16.15;;;2.30;76.50;;;;;;4152601;28;20022;-85
2022/12/04 05:21:56;;;;;;;29.58;14.73;;;2.40;76.60;;;;;;4136109;28;20125;-84
2022/12/04 05:23:57;;;;;;;28.40;14.35;;;2.30;76.50;;;;;;4150914;28;20421;-85
2022/12/04 05:26:02;;;;;;;30.95;15.38;;;2.30;76.50;;;;;;4119002;28;20027;-85
2022/12/04 05:28:03;;;;;;;29.33;14.57;;;2.30;76.60;;;;;;4147222;28;20536;-85
2022/12/04 05:30:06;;;;;;;30.42;13.70;;;2.30;76.80;;;;;;4138754;28;20037;-84
2022/12/04 05:32:07;;;;;;;30.70;14.52;;;2.30;76.90;;;;;;4141238;28;20113;-86
2022/12/04 05:34:08;;;;;;;30.23;14.23;;;2.30;77.10;;;;;;4150491;28;20053;-85
2022/12/04 05:36:10;;;;;;;32.85;14.82;;;2.30;77.10;;;;;;4120349;28;20459;-86
2022/12/04 05:38:10;;;;;;;34.72;15.60;;;2.40;77.00;;;;;;4151534;28;20022;-85
2022/12/04 05:40:11;;;;;;;29.40;14.70;;;2.40;76.90;;;;;;4145258;28;20037;-86
2022/12/04 05:42:13;;;;;;;30.00;15.07;;;2.40;77.00;;;;;;4132581;28;20073;-85
2022/12/04 05:44:14;;;;;;;33.33;15.85;;;2.40;77.00;;;;;;4151872;28;20032;-87
2022/12/04 05:46:14;;;;;;;29.10;14.25;;;2.40;77.00;;;;;;4133885;28;20034;-85
2022/12/04 05:48:15;;;;;;;31.63;15.05;;;2.40;77.20;;;;;;4135631;28;20037;-85
2022/12/04 05:50:16;;;;;;;28.90;14.30;;;2.30;78.00;;;;;;4133820;28;20036;-85
2022/12/04 05:52:17;;;;;;;24.58;13.10;;;2.40;77.30;;;;;;4135989;28;20042;-85
2022/12/04 05:54:18;;;;;;;24.83;12.43;;;2.40;77.30;;;;;;4138509;28;20522;-87
2022/12/04 05:56:19;;;;;;;25.55;12.93;;;2.40;77.20;;;;;;4151177;28;20080;-86
2022/12/04 05:58:20;;;;;;;25.52;12.50;;;2.40;77.20;;;;;;4131164;28;20064;-85
2022/12/04 06:00:20;;;;;;;21.30;11.65;;;2.40;77.30;;;;;;4149184;28;20040;-85
2022/12/04 06:02:21;;;;;;;21.73;12.13;;;2.40;77.20;;;;;;4150720;28;20044;-84
2022/12/04 06:04:22;;;;;;;21.77;11.52;;;2.40;77.10;;;;;;4120189;28;20053;-85
2022/12/04 06:06:24;;;;;;;24.15;12.05;;;2.50;77.10;;;;;;4162394;28;20025;-84
2022/12/04 06:08:25;;;;;;;21.98;11.65;;;2.50;77.10;;;;;;4154248;28;20033;-84
2022/12/04 06:10:27;;;;;;;26.65;12.93;;;2.50;77.20;;;;;;4164122;28;20085;-83
2022/12/04 06:12:29;;;;;;;23.70;11.98;;;2.50;77.10;;;;;;4129555;28;20030;-83
2022/12/04 06:14:30;;;;;;;20.30;10.90;;;2.50;77.10;;;;;;4119345;28;20403;-84
2022/12/04 06:16:34;;;;;;;23.55;11.02;;;2.60;77.10;;;;;;4132265;28;20030;-84
2022/12/04 06:18:35;;;;;;;23.10;12.23;;;2.60;77.00;;;;;;4135297;28;20022;-84
2022/12/04 06:20:35;;;;;;;22.77;11.77;;;2.80;77.10;;;;;;4134461;28;20088;-83
2022/12/04 06:22:36;;;;;;;25.20;11.40;;;2.50;77.10;;;;;;4138484;28;20030;-86
2022/12/04 06:24:38;;;;;;;24.55;10.73;;;2.60;77.50;;;;;;4139407;28;20113;-85
2022/12/04 06:26:57;;;;;;;26.52;11.23;;;2.50;77.40;;;;;;4119998;28;20096;-86
2022/12/04 06:28:58;;;;;;;22.42;10.93;;;2.50;77.60;;;;;;4127079;28;20029;-86
2022/12/04 06:31:20;;;;;;;24.98;11.57;;;2.60;77.70;;;;;;4134640;28;20555;-85
2022/12/04 06:33:20;;;;;;;21.33;11.85;;;2.50;77.90;;;;;;4114755;28;20022;-85
2022/12/04 06:35:21;;;;;;;20.02;11.57;;;2.60;78.10;;;;;;4143333;28;20125;-85
2022/12/04 06:37:24;;;;;;;23.80;11.65;;;2.60;77.80;;;;;;4120581;28;20032;-85
2022/12/04 06:39:44;;;;;;;21.52;11.02;;;2.60;77.70;;;;;;4152938;28;20036;-86
2022/12/04 06:41:46;;;;;;;21.88;11.48;;;2.60;77.90;;;;;;4129676;28;20117;-85
2022/12/04 06:44:06;;;;;;;19.27;10.60;;;2.60;78.00;;;;;;4138590;28;20064;-86
2022/12/04 06:46:31;;;;;;;20.00;11.18;;;2.60;78.10;;;;;;4132976;28;20042;-86
2022/12/04 06:48:54;;;;;;;20.33;10.68;;;2.60;78.10;;;;;;4146843;28;20400;-85
2022/12/04 06:51:26;;;;;;;22.80;11.35;;;2.70;78.00;;;;;;4136870;28;20072;-86
2022/12/04 06:53:29;;;;;;;21.83;10.70;;;2.70;77.90;;;;;;4135852;28;20030;-85
2022/12/04 06:55:29;;;;;;;20.67;10.90;;;2.80;77.80;;;;;;4130543;28;20289;-85
2022/12/04 06:57:30;;;;;;;19.08;9.68;;;2.80;78.00;;;;;;4134229;28;20292;-85
2022/12/04 06:59:32;;;;;;;16.20;8.82;;;2.80;78.00;;;;;;4141664;28;20022;-86
2022/12/04 07:01:33;;;;;;;19.55;9.77;;;2.80;78.20;;;;;;4119901;28;20026;-84
2022/12/04 07:03:34;;;;;;;23.60;10.05;;;2.80;78.10;;;;;;4131675;28;20102;-86
2022/12/04 07:05:35;;;;;;;27.92;10.02;;;2.90;78.10;;;;;;4146141;28;20806;-87
2022/12/04 07:07:35;;;;;;;19.02;9.85;;;2.80;78.20;;;;;;4154521;28;20037;-85
2022/12/04 07:09:37;;;;;;;19.27;10.40;;;2.80;78.50;;;;;;4151819;28;20037;-86
2022/12/04 07:11:39;;;;;;;19.23;10.05;;;2.90;79.20;;;;;;4133577;28;20061;-84
2022/12/04 07:13:40;;;;;;;20.67;11.07;;;2.80;78.80;;;;;;4143307;28;20050;-84
2022/12/04 07:15:41;;;;;;;20.05;11.60;;;2.90;78.70;;;;;;4158040;28;20040;-86
2022/12/04 07:17:41;;;;;;;20.73;11.00;;;2.90;78.90;;;;;;4131450;28;20061;-85
2022/12/04 07:19:42;;;;;;;24.48;11.32;;;2.80;79.20;;;;;;4107068;28;20027;-85
2022/12/04 07:21:43;;;;;;;21.63;11.45;;;2.90;79.30;;;;;;4127396;28;20038;-86
2022/12/04 07:23:47;;;;;;;20.08;10.82;;;2.90;79.40;;;;;;4150507;28;20078;-86
2022/12/04 07:25:47;;;;;;;18.27;11.40;;;2.90;79.40;;;;;;4129397;28;20045;-87
2022/12/04 07:27:48;;;;;;;17.55;9.98;;;2.90;79.50;;;;;;4122782;28;20034;-85
2022/12/04 07:29:51;;;;;;;19.88;10.70;;;2.90;79.60;;;;;;4135244;28;20038;-86
2022/12/04 07:31:52;;;;;;;;;;;2.90;79.70;;;;;;4134464;28;20033;-85
2022/12/04 07:33:54;;;;;;;18.00;10.23;;;2.90;80.00;;;;;;4126135;28;20379;-86
2022/12/04 07:35:59;;;;;;;22.55;11.38;;;2.90;79.60;;;;;;4139620;28;20077;-86
2022/12/04 07:37:59;;;;;;;23.40;12.40;;;2.90;79.80;;;;;;4150397;28;20108;-87
2022/12/04 07:40:00;;;;;;;25.58;12.25;;;2.90;79.90;;;;;;4149528;28;20541;-86
2022/12/04 07:42:00;;;;;;;27.05;12.02;;;2.90;79.90;;;;;;4133838;28;20026;-88
2022/12/04 07:44:02;;;;;;;23.33;12.35;;;2.90;80.00;;;;;;4139570;28;20039;-86
2022/12/04 07:46:09;;;;;;;22.50;11.15;;;2.90;80.20;;;;;;4137351;28;20461;-87
2022/12/04 07:48:10;;;;;;;21.83;11.57;;;2.90;80.10;;;;;;4150965;28;20021;-86
2022/12/04 07:50:10;;;;;;;22.20;11.95;;;2.90;80.20;;;;;;4151546;28;20025;-86
2022/12/04 07:52:11;;;;;;;23.98;12.95;;;2.90;80.20;;;;;;4144631;28;20029;-84
2022/12/04 07:54:12;;;;;;;25.08;13.10;;;2.90;80.60;;;;;;4150347;28;20026;-87
2022/12/04 07:56:13;;;;;;;26.55;13.80;;;2.90;80.60;;;;;;4150498;28;20041;-87
2022/12/04 07:58:13;;;;;;;23.60;13.60;;;2.90;80.60;;;;;;4140594;28;20032;-86
2022/12/04 08:00:14;;;;;;;30.27;14.32;;;3.00;80.80;;;;;;4131074;28;20073;-87
2022/12/04 08:02:15;;;;;;;21.88;12.35;;;3.00;80.90;;;;;;4141082;28;20022;-87
2022/12/04 08:04:16;;;;;;;23.95;13.73;;;3.00;80.90;;;;;;4120251;28;20033;-86
2022/12/04 08:06:19;;;;;;;27.15;13.73;;;3.00;80.90;;;;;;4118743;28;20062;-88
2022/12/04 08:08:20;;;;;;;25.88;13.50;;;3.00;80.80;;;;;;4139173;28;20022;-87
2022/12/04 08:10:21;;;;;;;21.48;12.15;;;3.00;80.90;;;;;;4153740;28;20036;-87
2022/12/04 08:12:21;;;;;;;25.33;13.60;;;3.00;80.80;;;;;;4147924;28;20371;-87
2022/12/04 08:14:22;;;;;;;24.40;12.75;;;3.20;81.00;;;;;;4139995;28;20037;-87
2022/12/04 08:16:43;;;;;;;38.47;18.77;;;3.20;80.80;;;;;;4149839;28;20052;-86
2022/12/04 08:18:47;;;;;;;34.67;17.30;;;3.10;80.50;;;;;;4135140;28;20082;-87
2022/12/04 08:21:10;;;;;;;26.42;13.48;;;3.10;80.80;;;;;;4145005;28;20038;-88
2022/12/04 08:23:11;;;;;;;26.10;12.75;;;3.10;80.80;;;;;;4130296;28;20442;-88
2022/12/04 08:25:20;;;;;;;24.35;13.80;;;3.00;81.10;;;;;;4134418;28;20032;-88
2022/12/04 08:27:45;;;;;;;24.95;12.23;;;3.00;81.10;;;;;;4128861;28;20032;-88
2022/12/04 08:29:46;;;;;;;25.42;13.25;;;3.10;81.20;;;;;;4143672;28;20087;-90
2022/12/04 08:32:07;;;;;;;23.98;13.23;;;3.10;81.20;;;;;;4135146;28;20040;-87
2022/12/04 08:34:27;;;;;;;24.55;11.77;;;3.00;81.40;;;;;;4133621;28;20045;-89
2022/12/04 08:36:48;;;;;;;28.15;13.90;;;3.00;81.50;;;;;;4137444;28;20033;-88
2022/12/04 08:39:10;;;;;;;28.08;13.65;;;3.00;81.40;;;;;;4134385;28;20076;-88
2022/12/04 08:41:31;;;;;;;23.25;11.82;;;3.10;81.50;;;;;;4131530;28;20026;-87
2022/12/04 08:43:53;;;;;;;24.85;12.85;;;3.10;81.30;;;;;;4139222;28;20045;-87
2022/12/04 08:46:16;;;;;;;19.83;10.88;;;3.10;81.40;;;;;;4141266;28;20080;-87
2022/12/04 08:48:37;;;;;;;22.92;10.82;;;3.20;81.40;;;;;;4135051;28;20041;-89
2022/12/04 08:50:57;;;;;;;29.58;11.80;;;3.10;81.60;;;;;;4147625;28;20041;-88
2022/12/04 08:52:58;;;;;;;20.70;10.65;;;3.10;81.50;;;;;;4148561;28;22027;-88
2022/12/04 08:54:59;;;;;;;21.70;10.82;;;3.10;81.40;;;;;;4134053;28;20038;-87
2022/12/04 08:57:00;;;;;;;19.98;8.75;;;3.00;81.50;;;;;;4126418;28;20021;-87
2022/12/04 08:59:00;;;;;;;15.15;8.63;;;3.20;81.80;;;;;;4129925;28;20244;-88
2022/12/04 09:01:11;;;;;;;17.73;9.52;;;3.10;81.80;;;;;;4136192;28;20025;-88
2022/12/04 09:03:16;;;;;;;11.05;6.63;;;3.10;81.70;;;;;;4127588;28;20019;-88
2022/12/04 09:05:17;;;;;;;8.98;5.45;;;3.10;81.80;;;;;;4132155;28;20034;-87
2022/12/04 09:07:18;;;;;;;9.82;5.50;;;3.20;81.70;;;;;;4130112;28;20097;-87
2022/12/04 09:09:18;;;;;;;13.55;6.18;;;3.10;81.70;;;;;;4156351;28;20093;-86
2022/12/04 09:11:21;;;;;;;10.65;6.03;;;3.20;81.70;;;;;;4164547;28;20107;-86
2022/12/04 09:13:22;;;;;;;12.43;6.18;;;3.10;82.00;;;;;;4149974;28;20042;-85
2022/12/04 09:15:22;;;;;;;16.40;6.18;;;3.20;82.30;;;;;;4131234;28;20049;-87
2022/12/04 09:17:23;;;;;;;15.73;7.07;;;3.20;82.10;;;;;;4150556;28;20029;-88
2022/12/04 09:19:23;;;;;;;17.10;6.63;;;3.30;82.20;;;;;;4118640;28;20489;-87
2022/12/04 09:21:25;;;;;;;13.13;7.43;;;3.20;82.30;;;;;;4103829;28;20026;-87
2022/12/04 09:23:26;;;;;;;15.20;6.45;;;3.10;82.50;;;;;;4110918;28;20038;-88
2022/12/04 09:25:27;;;;;;;13.77;7.10;;;3.20;82.60;;;;;;4129466;28;20041;-87
2022/12/04 09:27:28;;;;;;;13.45;6.00;;;3.10;83.50;;;;;;4121008;28;20034;-86
2022/12/04 09:29:28;;;;;;;13.73;7.45;;;3.10;82.80;;;;;;4129119;28;20037;-86
2022/12/04 09:31:39;;;;;;;14.80;7.18;;;3.20;82.80;;;;;;4138673;28;20028;-87
2022/12/04 09:34:00;;;;;;;13.27;6.50;;;3.20;82.80;;;;;;4131569;28;20030;-87
2022/12/04 09:36:22;;;;;;;17.63;7.70;;;3.20;83.20;;;;;;4141922;28;20034;-87
2022/12/04 09:38:45;;;;;;;14.88;7.60;;;3.10;83.40;;;;;;4130870;28;20034;-86
2022/12/04 09:41:14;;;;;;;20.88;8.95;;;3.10;83.40;;;;;;4143709;28;20041;-87
2022/12/04 09:43:45;;;;;;;19.35;9.20;;;3.10;83.80;;;;;;4105169;28;20064;-88
2022/12/04 09:46:17;;;;;;;14.50;7.30;;;3.10;83.60;;;;;;4136776;28;20124;-86
2022/12/04 09:48:41;;;;;;;13.75;6.60;;;3.10;83.40;;;;;;4132076;28;20043;-87
2022/12/04 09:51:04;;;;;;;13.98;6.53;;;3.20;83.20;;;;;;4139012;28;20060;-85
2022/12/04 09:53:24;;;;;;;14.90;8.20;;;3.20;83.40;;;;;;4136523;28;20026;-86
2022/12/04 09:55:58;;;;;;;24.35;9.55;;;3.20;83.40;;;;;;4128627;28;20038;-86
2022/12/04 09:58:34;;;;;;;;;;;3.10;83.50;;;;;;4146200;28;20093;-86
2022/12/04 10:00:56;;;;;;;14.98;7.20;;;3.10;83.70;;;;;;4149456;28;20351;-86
2022/12/04 10:03:19;;;;;;;14.02;6.97;;;3.10;83.50;;;;;;4139020;28;20029;-86
2022/12/04 10:05:46;;;;;;;17.50;7.47;;;3.10;83.70;;;;;;4142192;28;20046;-87
2022/12/04 10:08:24;;;;;;;10.52;5.22;;;3.10;83.70;;;;;;4138603;28;20112;-86
2022/12/04 10:11:08;;;;;;;9.13;5.10;;;3.10;83.60;;;;;;4149512;28;20080;-86
2022/12/04 10:14:06;;;;;;;8.60;4.78;;;3.10;83.50;;;;;;4129499;28;20041;-87
2022/12/04 10:16:51;;;;;;;10.57;6.22;;;3.00;83.10;;;;;;4155833;28;20041;-86
2022/12/04 10:19:19;;;;;;;12.02;4.63;;;3.00;83.50;;;;;;4121459;28;20041;-86
2022/12/04 10:21:39;;;;;;;13.30;4.70;;;3.00;83.50;;;;;;4153250;28;20032;-86
2022/12/04 10:23:42;;;;;;;8.93;5.10;;;3.10;83.60;;;;;;4152202;28;20053;-86
2022/12/04 10:25:43;;;;;;;9.70;5.25;;;3.00;83.40;;;;;;4150939;28;20038;-86
2022/12/04 10:28:00;;;;;;;6.97;4.65;;;3.10;83.50;;;;;;4146748;28;20117;-87
2022/12/04 10:30:14;;;;;;;9.93;4.55;;;3.10;83.40;;;;;;4134350;28;20049;-86
2022/12/04 10:32:43;;;;;;;10.50;5.15;;;3.10;83.30;;;;;;4148197;28;20037;-87
2022/12/04 10:34:45;;;;;;;11.40;4.82;;;3.10;83.40;;;;;;4121098;28;20301;-87
2022/12/04 10:36:51;;;;;;;9.35;5.07;;;3.10;83.20;;;;;;4117794;28;20147;-86
2022/12/04 10:38:55;;;;;;;12.05;4.88;;;3.10;83.10;;;;;;4135533;28;20033;-86
2022/12/04 10:41:06;;;;;;;10.30;5.20;;;3.10;83.10;;;;;;4108921;28;20058;-87
2022/12/04 10:43:19;;;;;;;8.32;4.55;;;3.10;83.20;;;;;;4135557;28;20125;-86
2022/12/04 10:45:22;;;;;;;9.48;4.72;;;3.20;83.20;;;;;;4127226;28;20029;-86
2022/12/04 10:47:23;;;;;;;8.02;4.05;;;3.10;83.20;;;;;;4109315;28;20035;-86
2022/12/04 10:49:26;;;;;;;6.95;4.20;;;3.10;83.30;;;;;;4136135;28;20052;-86
2022/12/04 10:51:33;;;;;;;7.17;4.07;;;3.10;83.20;;;;;;4114079;28;20092;-86
2022/12/04 10:53:35;;;;;;;8.80;4.28;;;3.10;83.00;;;;;;4133198;28;20636;-87
2022/12/04 10:55:37;;;;;;;9.30;4.22;;;3.00;82.80;;;;;;4130432;28;20125;-87
2022/12/04 10:57:40;;;;;;;7.63;3.53;;;3.10;82.90;;;;;;4150158;28;20032;-87
2022/12/04 10:59:55;;;;;;;6.57;3.63;;;3.10;82.60;;;;;;4141039;28;20387;-87
2022/12/04 11:02:11;;;;;;;6.60;3.50;;;3.20;82.50;;;;;;4110123;28;20034;-87
2022/12/04 11:04:30;;;;;;;6.88;3.08;;;3.20;82.60;;;;;;4135559;28;20515;-87
2022/12/04 11:06:33;;;;;;;7.32;3.00;;;3.20;82.70;;;;;;4125411;28;20033;-88
2022/12/04 11:08:43;;;;;;;7.93;4.00;;;3.20;82.70;;;;;;4119047;28;20112;-87
2022/12/04 11:10:44;;;;;;;8.70;4.07;;;3.30;82.60;;;;;;4124986;28;20506;-86
2022/12/04 11:13:01;;;;;;;8.68;3.83;;;3.30;82.50;;;;;;4153065;28;20109;-87
2022/12/04 11:15:05;;;;;;;12.07;5.25;;;3.30;82.50;;;;;;4117791;28;20074;-86